Terminal Aerodrome Forecast
Issued by NWS

Current Version | Previous Version | Text Only | Print | Product List | Glossary Off
Versions: 1 2 3 4 5 6 7 8 9 10 11 12 13 14 15 16 17

000
FTUS41 KILN 271502 AAA
TAFLUK
TAF AMD
KLUK 271502Z 2715/2812 31007KT P6SM SCT040
     FM280000 VRB03KT P6SM FEW250
     FM280600 VRB03KT 3SM BR FEW230
     FM280900 VRB03KT 1SM BR FEW002=

USA.gov is the U.S. government's official web portal to all federal, state and local government web resources and services.